Coeur D'Alene - Pappy Boyington Field Coeur d'Alene US
ICAO: KCOE
IATA: COE
Category: Medium
Scheduled Services: No

Elevation: 2320 ft
TransAlt. 18000 ft.

Airport Communications:
SPOKANE APP/DEP:132.1
AWOS 3:135.075
SEATTLE CNTR:123.95
BOISE RDO:122.05
CTAF/UNICOM:122.8

KCOE Zoom In..

If you have problems with the map follow the link
https://www.worldairports.se/pages/airport.php?
ICAO=KCOE

Runways:

(A) RW 02 length 5400 ft width 75 ft
---- / hdg 13

(B) RW 06 length 7400 ft width 100 ft
ILS 110.70 / hdg 51

(C) RW 20 length 5400 ft width 75 ft
---- / hdg 193

(D) RW 24 length 7400 ft width 100 ft
---- / hdg 231

Location; KCOE
Day. 26 / Time. 23.25 Zulu
* Altimeter: 29.99
* Temperature: 03° c. 37.4°f.
* Wind from: 180° Speed 06 kn.
Dewpoint: 02° c.
Visibility: 3 Statute Miles.
Clouds: Overcast 1300 ft.
Conditions: Mist.

KCOE 262325Z AUTO 18006KT 3SM UP BR OVC013 03/02 A2999 RMK AO2 P0000


Wind From 180°
Speed 06 kn.

 
 
jpsmedia worldairports.se 2020   terms of use